Аэропорт: Павлодар. Павлодар

ICAO: UASP

METAR:
2021-07-28 13:00:00
UASP 281300Z 17002MPS CAVOK 25/03 Q1008 NOSIG RMK QFE745/0993
METAR:
2021-07-28 11:03:00
TAF UASP 281103Z 2812/2821 27003MPS 9999 SCT020CB TEMPO 2813/2821 16003MPS